sensor_id;sensor_type;location;lat;lon;timestamp;P1;durP1;ratioP1;P2;durP2;ratioP2
48524;SDS011;34316;51.514;-0.178;2022-12-29T00:00:03;41.05;;;25.83;;
48524;SDS011;34316;51.514;-0.178;2022-12-29T00:04:09;45.63;;;27.27;;
48524;SDS011;34316;51.514;-0.178;2022-12-29T00:06:15;48.65;;;28.00;;
48524;SDS011;34316;51.514;-0.178;2022-12-29T00:08:17;48.35;;;29.42;;
48524;SDS011;34316;51.514;-0.178;2022-12-29T00:10:19;44.17;;;28.42;;
48524;SDS011;34316;51.514;-0.178;2022-12-29T00:12:20;46.72;;;29.83;;
48524;SDS011;34316;51.514;-0.178;2022-12-29T00:14:22;46.85;;;28.75;;
48524;SDS011;34316;51.514;-0.178;2022-12-29T00:16:44;50.17;;;29.15;;
48524;SDS011;34316;51.514;-0.178;2022-12-29T00:18:46;45.90;;;28.65;;
48524;SDS011;34316;51.514;-0.178;2022-12-29T00:20:48;48.72;;;29.55;;
48524;SDS011;34316;51.514;-0.178;2022-12-29T00:23:08;42.03;;;29.30;;
48524;SDS011;34316;51.514;-0.178;2022-12-29T00:25:28;43.92;;;26.90;;
48524;SDS011;34316;51.514;-0.178;2022-12-29T00:27:49;50.20;;;27.77;;
48524;SDS011;34316;51.514;-0.178;2022-12-29T00:30:29;44.33;;;26.85;;
48524;SDS011;34316;51.514;-0.178;2022-12-29T00:32:49;43.97;;;28.13;;
48524;SDS011;34316;51.514;-0.178;2022-12-29T00:35:09;43.80;;;27.85;;
48524;SDS011;34316;51.514;-0.178;2022-12-29T00:37:14;45.65;;;27.60;;
48524;SDS011;34316;51.514;-0.178;2022-12-29T00:39:16;45.92;;;27.02;;
48524;SDS011;34316;51.514;-0.178;2022-12-29T00:41:37;43.20;;;26.55;;
48524;SDS011;34316;51.514;-0.178;2022-12-29T00:43:57;46.53;;;27.40;;
48524;SDS011;34316;51.514;-0.178;2022-12-29T00:46:08;46.78;;;28.10;;
48524;SDS011;34316;51.514;-0.178;2022-12-29T00:48:16;43.95;;;28.52;;
48524;SDS011;34316;51.514;-0.178;2022-12-29T00:50:37;48.35;;;29.23;;
48524;SDS011;34316;51.514;-0.178;2022-12-29T00:52:39;47.72;;;30.65;;
48524;SDS011;34316;51.514;-0.178;2022-12-29T00:54:41;54.33;;;30.60;;
48524;SDS011;34316;51.514;-0.178;2022-12-29T00:56:42;50.80;;;31.60;;
48524;SDS011;34316;51.514;-0.178;2022-12-29T00:58:44;51.72;;;30.60;;
48524;SDS011;34316;51.514;-0.178;2022-12-29T01:00:46;50.58;;;31.85;;
48524;SDS011;34316;51.514;-0.178;2022-12-29T01:02:48;56.95;;;33.38;;
48524;SDS011;34316;51.514;-0.178;2022-12-29T01:04:50;53.08;;;32.97;;
48524;SDS011;34316;51.514;-0.178;2022-12-29T01:06:52;55.28;;;33.13;;
48524;SDS011;34316;51.514;-0.178;2022-12-29T01:08:54;48.67;;;32.25;;
48524;SDS011;34316;51.514;-0.178;2022-12-29T01:11:14;60.80;;;34.45;;
48524;SDS011;34316;51.514;-0.178;2022-12-29T01:13:17;58.42;;;35.38;;
48524;SDS011;34316;51.514;-0.178;2022-12-29T01:15:19;56.65;;;34.97;;
48524;SDS011;34316;51.514;-0.178;2022-12-29T01:17:21;55.38;;;34.83;;
48524;SDS011;34316;51.514;-0.178;2022-12-29T01:19:23;54.05;;;33.20;;
48524;SDS011;34316;51.514;-0.178;2022-12-29T01:21:25;50.08;;;33.80;;
48524;SDS011;34316;51.514;-0.178;2022-12-29T01:23:27;56.70;;;34.80;;
48524;SDS011;34316;51.514;-0.178;2022-12-29T01:25:29;55.85;;;32.67;;
48524;SDS011;34316;51.514;-0.178;2022-12-29T01:27:31;54.10;;;33.78;;
48524;SDS011;34316;51.514;-0.178;2022-12-29T01:29:33;58.67;;;34.05;;
48524;SDS011;34316;51.514;-0.178;2022-12-29T01:31:35;56.13;;;33.85;;
48524;SDS011;34316;51.514;-0.178;2022-12-29T01:33:37;54.53;;;34.25;;
48524;SDS011;34316;51.514;-0.178;2022-12-29T01:35:39;56.30;;;35.92;;
48524;SDS011;34316;51.514;-0.178;2022-12-29T01:37:41;63.90;;;36.70;;
48524;SDS011;34316;51.514;-0.178;2022-12-29T01:39:42;54.92;;;33.15;;
48524;SDS011;34316;51.514;-0.178;2022-12-29T01:41:44;53.17;;;33.72;;
48524;SDS011;34316;51.514;-0.178;2022-12-29T01:43:47;48.10;;;31.23;;
48524;SDS011;34316;51.514;-0.178;2022-12-29T01:45:53;43.92;;;28.42;;
48524;SDS011;34316;51.514;-0.178;2022-12-29T01:47:56;42.08;;;26.25;;
48524;SDS011;34316;51.514;-0.178;2022-12-29T01:50:10;38.28;;;24.20;;
48524;SDS011;34316;51.514;-0.178;2022-12-29T01:52:15;35.92;;;23.27;;
48524;SDS011;34316;51.514;-0.178;2022-12-29T01:54:27;38.85;;;24.88;;
48524;SDS011;34316;51.514;-0.178;2022-12-29T01:56:30;37.15;;;23.73;;
48524;SDS011;34316;51.514;-0.178;2022-12-29T01:58:34;38.22;;;23.40;;
48524;SDS011;34316;51.514;-0.178;2022-12-29T02:00:39;34.55;;;23.27;;
48524;SDS011;34316;51.514;-0.178;2022-12-29T02:02:42;36.90;;;23.88;;
48524;SDS011;34316;51.514;-0.178;2022-12-29T02:04:54;33.90;;;22.92;;
48524;SDS011;34316;51.514;-0.178;2022-12-29T02:07:05;35.20;;;21.65;;
48524;SDS011;34316;51.514;-0.178;2022-12-29T02:09:12;33.15;;;22.48;;
48524;SDS011;34316;51.514;-0.178;2022-12-29T02:11:15;33.08;;;20.95;;
48524;SDS011;34316;51.514;-0.178;2022-12-29T02:13:17;37.85;;;22.13;;
48524;SDS011;34316;51.514;-0.178;2022-12-29T02:15:21;32.35;;;21.38;;
48524;SDS011;34316;51.514;-0.178;2022-12-29T02:27:55;31.58;;;20.77;;
48524;SDS011;34316;51.514;-0.178;2022-12-29T02:33:08;29.48;;;19.35;;
48524;SDS011;34316;51.514;-0.178;2022-12-29T02:35:36;27.42;;;19.45;;
48524;SDS011;34316;51.514;-0.178;2022-12-29T02:44:34;28.77;;;17.77;;
48524;SDS011;34316;51.514;-0.178;2022-12-29T02:46:40;26.85;;;18.13;;
48524;SDS011;34316;51.514;-0.178;2022-12-29T02:48:47;26.67;;;17.42;;
48524;SDS011;34316;51.514;-0.178;2022-12-29T02:53:34;24.92;;;16.38;;
48524;SDS011;34316;51.514;-0.178;2022-12-29T02:55:56;27.33;;;17.70;;
48524;SDS011;34316;51.514;-0.178;2022-12-29T03:00:18;28.30;;;17.92;;
48524;SDS011;34316;51.514;-0.178;2022-12-29T03:05:02;30.52;;;19.55;;
48524;SDS011;34316;51.514;-0.178;2022-12-29T03:11:29;35.08;;;22.20;;
48524;SDS011;34316;51.514;-0.178;2022-12-29T03:13:56;33.80;;;22.45;;
48524;SDS011;34316;51.514;-0.178;2022-12-29T03:16:44;37.17;;;21.88;;
48524;SDS011;34316;51.514;-0.178;2022-12-29T03:23:56;33.40;;;22.27;;
48524;SDS011;34316;51.514;-0.178;2022-12-29T03:25:58;32.47;;;21.30;;
48524;SDS011;34316;51.514;-0.178;2022-12-29T03:28:05;39.80;;;23.25;;
48524;SDS011;34316;51.514;-0.178;2022-12-29T03:30:08;33.63;;;22.02;;
48524;SDS011;34316;51.514;-0.178;2022-12-29T03:32:11;33.13;;;22.13;;
48524;SDS011;34316;51.514;-0.178;2022-12-29T03:34:14;34.85;;;22.00;;
48524;SDS011;34316;51.514;-0.178;2022-12-29T03:36:18;36.03;;;23.23;;
48524;SDS011;34316;51.514;-0.178;2022-12-29T03:38:57;34.47;;;20.73;;
48524;SDS011;34316;51.514;-0.178;2022-12-29T03:41:04;36.90;;;21.40;;
48524;SDS011;34316;51.514;-0.178;2022-12-29T03:43:08;32.20;;;21.52;;
48524;SDS011;34316;51.514;-0.178;2022-12-29T03:45:10;35.42;;;21.65;;
48524;SDS011;34316;51.514;-0.178;2022-12-29T03:47:13;36.88;;;22.67;;
48524;SDS011;34316;51.514;-0.178;2022-12-29T03:49:15;33.20;;;23.17;;
48524;SDS011;34316;51.514;-0.178;2022-12-29T03:51:18;38.25;;;24.23;;
48524;SDS011;34316;51.514;-0.178;2022-12-29T03:53:20;38.00;;;23.77;;
48524;SDS011;34316;51.514;-0.178;2022-12-29T03:55:22;38.90;;;23.83;;
48524;SDS011;34316;51.514;-0.178;2022-12-29T03:57:24;41.55;;;27.05;;
48524;SDS011;34316;51.514;-0.178;2022-12-29T03:59:25;40.33;;;26.00;;
48524;SDS011;34316;51.514;-0.178;2022-12-29T04:01:27;42.10;;;26.27;;
48524;SDS011;34316;51.514;-0.178;2022-12-29T04:03:29;38.40;;;24.60;;
48524;SDS011;34316;51.514;-0.178;2022-12-29T04:05:31;43.95;;;26.90;;
48524;SDS011;34316;51.514;-0.178;2022-12-29T04:07:33;40.50;;;26.48;;
48524;SDS011;34316;51.514;-0.178;2022-12-29T04:09:35;39.00;;;24.83;;
48524;SDS011;34316;51.514;-0.178;2022-12-29T04:11:36;39.25;;;25.70;;
48524;SDS011;34316;51.514;-0.178;2022-12-29T04:13:38;42.25;;;25.80;;
48524;SDS011;34316;51.514;-0.178;2022-12-29T04:15:42;41.50;;;26.35;;
48524;SDS011;34316;51.514;-0.178;2022-12-29T04:17:45;41.28;;;27.67;;
48524;SDS011;34316;51.514;-0.178;2022-12-29T04:19:47;39.55;;;26.65;;
48524;SDS011;34316;51.514;-0.178;2022-12-29T04:21:48;32.97;;;22.58;;
48524;SDS011;34316;51.514;-0.178;2022-12-29T04:23:50;36.47;;;23.30;;
48524;SDS011;34316;51.514;-0.178;2022-12-29T04:25:52;28.27;;;18.75;;
48524;SDS011;34316;51.514;-0.178;2022-12-29T04:27:53;24.13;;;17.48;;
48524;SDS011;34316;51.514;-0.178;2022-12-29T04:29:55;27.75;;;17.08;;
48524;SDS011;34316;51.514;-0.178;2022-12-29T04:31:57;25.50;;;16.75;;
48524;SDS011;34316;51.514;-0.178;2022-12-29T04:33:59;26.77;;;17.30;;
48524;SDS011;34316;51.514;-0.178;2022-12-29T04:36:01;26.48;;;17.83;;
48524;SDS011;34316;51.514;-0.178;2022-12-29T04:38:03;23.88;;;16.50;;
48524;SDS011;34316;51.514;-0.178;2022-12-29T04:40:05;29.70;;;16.63;;
48524;SDS011;34316;51.514;-0.178;2022-12-29T04:42:07;24.70;;;16.80;;
48524;SDS011;34316;51.514;-0.178;2022-12-29T04:44:09;26.83;;;17.35;;
48524;SDS011;34316;51.514;-0.178;2022-12-29T04:46:11;27.67;;;17.60;;
48524;SDS011;34316;51.514;-0.178;2022-12-29T04:48:12;24.13;;;16.98;;
48524;SDS011;34316;51.514;-0.178;2022-12-29T04:50:15;25.55;;;16.30;;
48524;SDS011;34316;51.514;-0.178;2022-12-29T04:52:18;26.00;;;17.17;;
48524;SDS011;34316;51.514;-0.178;2022-12-29T04:54:20;26.48;;;17.92;;
48524;SDS011;34316;51.514;-0.178;2022-12-29T04:56:21;27.15;;;18.00;;
48524;SDS011;34316;51.514;-0.178;2022-12-29T04:58:23;25.85;;;17.67;;
48524;SDS011;34316;51.514;-0.178;2022-12-29T05:00:25;25.17;;;16.65;;
48524;SDS011;34316;51.514;-0.178;2022-12-29T05:02:26;25.67;;;17.33;;
48524;SDS011;34316;51.514;-0.178;2022-12-29T05:04:28;25.67;;;17.10;;
48524;SDS011;34316;51.514;-0.178;2022-12-29T05:06:30;25.58;;;17.00;;
48524;SDS011;34316;51.514;-0.178;2022-12-29T05:08:32;27.10;;;17.60;;
48524;SDS011;34316;51.514;-0.178;2022-12-29T05:10:33;26.25;;;17.75;;
48524;SDS011;34316;51.514;-0.178;2022-12-29T05:12:35;29.95;;;17.83;;
48524;SDS011;34316;51.514;-0.178;2022-12-29T05:14:38;29.48;;;17.85;;
48524;SDS011;34316;51.514;-0.178;2022-12-29T05:16:39;26.77;;;17.42;;
48524;SDS011;34316;51.514;-0.178;2022-12-29T05:18:41;26.20;;;17.38;;
48524;SDS011;34316;51.514;-0.178;2022-12-29T05:20:43;31.92;;;18.45;;
48524;SDS011;34316;51.514;-0.178;2022-12-29T05:22:45;28.65;;;19.02;;
48524;SDS011;34316;51.514;-0.178;2022-12-29T05:24:47;28.63;;;17.85;;
48524;SDS011;34316;51.514;-0.178;2022-12-29T05:26:48;30.35;;;19.23;;
48524;SDS011;34316;51.514;-0.178;2022-12-29T05:28:50;29.02;;;18.10;;
48524;SDS011;34316;51.514;-0.178;2022-12-29T05:30:52;30.77;;;18.67;;
48524;SDS011;34316;51.514;-0.178;2022-12-29T05:32:54;33.33;;;20.25;;
48524;SDS011;34316;51.514;-0.178;2022-12-29T05:34:56;30.52;;;20.75;;
48524;SDS011;34316;51.514;-0.178;2022-12-29T05:36:57;34.42;;;21.55;;
48524;SDS011;34316;51.514;-0.178;2022-12-29T05:38:59;35.58;;;21.52;;
48524;SDS011;34316;51.514;-0.178;2022-12-29T05:41:01;34.95;;;23.15;;
48524;SDS011;34316;51.514;-0.178;2022-12-29T05:43:03;38.08;;;25.13;;
48524;SDS011;34316;51.514;-0.178;2022-12-29T05:45:05;38.05;;;24.38;;
48524;SDS011;34316;51.514;-0.178;2022-12-29T05:47:08;39.80;;;25.17;;
48524;SDS011;34316;51.514;-0.178;2022-12-29T05:49:10;44.28;;;26.45;;
48524;SDS011;34316;51.514;-0.178;2022-12-29T05:54:09;38.83;;;25.27;;
48524;SDS011;34316;51.514;-0.178;2022-12-29T05:56:11;39.53;;;26.02;;
48524;SDS011;34316;51.514;-0.178;2022-12-29T05:58:14;40.00;;;26.58;;
48524;SDS011;34316;51.514;-0.178;2022-12-29T06:00:17;39.88;;;26.08;;
48524;SDS011;34316;51.514;-0.178;2022-12-29T06:02:19;44.35;;;27.88;;
48524;SDS011;34316;51.514;-0.178;2022-12-29T06:04:21;38.05;;;26.33;;
48524;SDS011;34316;51.514;-0.178;2022-12-29T06:06:23;37.03;;;25.70;;
48524;SDS011;34316;51.514;-0.178;2022-12-29T06:08:24;47.20;;;25.98;;
48524;SDS011;34316;51.514;-0.178;2022-12-29T06:10:26;38.83;;;25.95;;
48524;SDS011;34316;51.514;-0.178;2022-12-29T06:12:28;38.05;;;25.45;;
48524;SDS011;34316;51.514;-0.178;2022-12-29T06:14:30;39.47;;;25.08;;
48524;SDS011;34316;51.514;-0.178;2022-12-29T06:16:31;37.83;;;24.27;;
48524;SDS011;34316;51.514;-0.178;2022-12-29T06:18:33;36.50;;;23.85;;
48524;SDS011;34316;51.514;-0.178;2022-12-29T06:20:35;35.78;;;24.23;;
48524;SDS011;34316;51.514;-0.178;2022-12-29T06:22:37;38.22;;;23.95;;
48524;SDS011;34316;51.514;-0.178;2022-12-29T06:24:39;33.75;;;22.58;;
48524;SDS011;34316;51.514;-0.178;2022-12-29T06:26:40;34.17;;;22.75;;
48524;SDS011;34316;51.514;-0.178;2022-12-29T06:28:43;31.75;;;23.10;;
48524;SDS011;34316;51.514;-0.178;2022-12-29T06:30:45;38.53;;;26.17;;
48524;SDS011;34316;51.514;-0.178;2022-12-29T06:32:47;41.05;;;27.02;;
48524;SDS011;34316;51.514;-0.178;2022-12-29T06:34:49;40.67;;;27.00;;
48524;SDS011;34316;51.514;-0.178;2022-12-29T06:36:50;44.50;;;27.88;;
48524;SDS011;34316;51.514;-0.178;2022-12-29T06:38:52;40.40;;;25.25;;
48524;SDS011;34316;51.514;-0.178;2022-12-29T06:40:54;37.28;;;24.27;;
48524;SDS011;34316;51.514;-0.178;2022-12-29T06:42:56;32.78;;;24.23;;
48524;SDS011;34316;51.514;-0.178;2022-12-29T06:44:58;33.17;;;23.73;;
48524;SDS011;34316;51.514;-0.178;2022-12-29T06:47:02;42.75;;;25.55;;
48524;SDS011;34316;51.514;-0.178;2022-12-29T06:49:03;36.13;;;24.02;;
48524;SDS011;34316;51.514;-0.178;2022-12-29T06:51:05;34.13;;;24.58;;
48524;SDS011;34316;51.514;-0.178;2022-12-29T06:53:07;35.35;;;23.48;;
48524;SDS011;34316;51.514;-0.178;2022-12-29T06:55:09;36.00;;;24.13;;
48524;SDS011;34316;51.514;-0.178;2022-12-29T06:57:10;39.70;;;25.63;;
48524;SDS011;34316;51.514;-0.178;2022-12-29T06:59:12;36.35;;;24.90;;
48524;SDS011;34316;51.514;-0.178;2022-12-29T07:01:14;39.00;;;24.83;;
48524;SDS011;34316;51.514;-0.178;2022-12-29T07:03:16;41.95;;;25.45;;
48524;SDS011;34316;51.514;-0.178;2022-12-29T07:05:18;35.25;;;24.55;;
48524;SDS011;34316;51.514;-0.178;2022-12-29T07:07:20;40.95;;;26.85;;
48524;SDS011;34316;51.514;-0.178;2022-12-29T07:09:22;40.17;;;27.92;;
48524;SDS011;34316;51.514;-0.178;2022-12-29T07:11:23;41.80;;;26.42;;
48524;SDS011;34316;51.514;-0.178;2022-12-29T07:13:25;46.47;;;27.55;;
48524;SDS011;34316;51.514;-0.178;2022-12-29T07:15:27;46.40;;;28.42;;
48524;SDS011;34316;51.514;-0.178;2022-12-29T07:17:29;41.30;;;28.15;;
48524;SDS011;34316;51.514;-0.178;2022-12-29T07:19:31;45.13;;;28.55;;
48524;SDS011;34316;51.514;-0.178;2022-12-29T07:21:33;49.08;;;28.65;;
48524;SDS011;34316;51.514;-0.178;2022-12-29T07:23:35;45.00;;;31.20;;
48524;SDS011;34316;51.514;-0.178;2022-12-29T07:25:37;46.30;;;29.75;;
48524;SDS011;34316;51.514;-0.178;2022-12-29T07:27:39;44.30;;;28.85;;
48524;SDS011;34316;51.514;-0.178;2022-12-29T07:29:40;43.72;;;29.02;;
48524;SDS011;34316;51.514;-0.178;2022-12-29T07:31:42;41.08;;;25.05;;
48524;SDS011;34316;51.514;-0.178;2022-12-29T07:33:44;43.95;;;26.33;;
48524;SDS011;34316;51.514;-0.178;2022-12-29T07:35:46;39.15;;;26.75;;
48524;SDS011;34316;51.514;-0.178;2022-12-29T07:37:48;44.28;;;28.58;;
48524;SDS011;34316;51.514;-0.178;2022-12-29T07:39:50;39.25;;;25.55;;
48524;SDS011;34316;51.514;-0.178;2022-12-29T07:41:52;39.45;;;27.15;;
48524;SDS011;34316;51.514;-0.178;2022-12-29T07:43:57;42.60;;;25.63;;
48524;SDS011;34316;51.514;-0.178;2022-12-29T07:45:59;42.75;;;26.75;;
48524;SDS011;34316;51.514;-0.178;2022-12-29T07:48:00;39.17;;;25.80;;
48524;SDS011;34316;51.514;-0.178;2022-12-29T07:50:04;43.22;;;26.73;;
48524;SDS011;34316;51.514;-0.178;2022-12-29T07:52:06;42.67;;;26.83;;
48524;SDS011;34316;51.514;-0.178;2022-12-29T07:54:08;45.05;;;26.27;;
48524;SDS011;34316;51.514;-0.178;2022-12-29T07:56:10;37.67;;;25.33;;
48524;SDS011;34316;51.514;-0.178;2022-12-29T07:58:12;36.78;;;25.17;;
48524;SDS011;34316;51.514;-0.178;2022-12-29T08:00:14;39.47;;;25.63;;
48524;SDS011;34316;51.514;-0.178;2022-12-29T08:02:16;41.25;;;26.13;;
48524;SDS011;34316;51.514;-0.178;2022-12-29T08:04:18;39.75;;;26.20;;
48524;SDS011;34316;51.514;-0.178;2022-12-29T08:06:20;39.70;;;26.13;;
48524;SDS011;34316;51.514;-0.178;2022-12-29T08:08:21;41.53;;;27.30;;
48524;SDS011;34316;51.514;-0.178;2022-12-29T08:10:23;41.25;;;27.50;;
48524;SDS011;34316;51.514;-0.178;2022-12-29T08:12:25;48.40;;;27.65;;
48524;SDS011;34316;51.514;-0.178;2022-12-29T08:14:27;42.17;;;26.95;;
48524;SDS011;34316;51.514;-0.178;2022-12-29T08:16:29;41.38;;;30.40;;
48524;SDS011;34316;51.514;-0.178;2022-12-29T08:18:31;43.80;;;29.83;;
48524;SDS011;34316;51.514;-0.178;2022-12-29T08:20:33;43.03;;;28.42;;
48524;SDS011;34316;51.514;-0.178;2022-12-29T08:22:35;43.88;;;28.30;;
48524;SDS011;34316;51.514;-0.178;2022-12-29T08:24:37;52.45;;;31.85;;
48524;SDS011;34316;51.514;-0.178;2022-12-29T08:26:39;41.47;;;29.05;;
48524;SDS011;34316;51.514;-0.178;2022-12-29T08:28:40;44.65;;;29.23;;
48524;SDS011;34316;51.514;-0.178;2022-12-29T08:30:42;45.97;;;30.75;;
48524;SDS011;34316;51.514;-0.178;2022-12-29T08:32:44;44.85;;;29.63;;
48524;SDS011;34316;51.514;-0.178;2022-12-29T08:34:46;42.85;;;29.83;;
48524;SDS011;34316;51.514;-0.178;2022-12-29T08:36:47;49.30;;;31.42;;
48524;SDS011;34316;51.514;-0.178;2022-12-29T08:38:49;45.42;;;30.13;;
48524;SDS011;34316;51.514;-0.178;2022-12-29T08:40:51;52.17;;;32.90;;
48524;SDS011;34316;51.514;-0.178;2022-12-29T08:42:53;43.90;;;30.50;;
48524;SDS011;34316;51.514;-0.178;2022-12-29T08:44:54;45.03;;;32.05;;
48524;SDS011;34316;51.514;-0.178;2022-12-29T08:46:56;49.78;;;31.95;;
48524;SDS011;34316;51.514;-0.178;2022-12-29T08:48:58;48.42;;;31.50;;
48524;SDS011;34316;51.514;-0.178;2022-12-29T08:51:00;46.47;;;33.45;;
48524;SDS011;34316;51.514;-0.178;2022-12-29T08:53:01;46.70;;;31.15;;
48524;SDS011;34316;51.514;-0.178;2022-12-29T08:55:03;49.42;;;32.08;;
48524;SDS011;34316;51.514;-0.178;2022-12-29T08:57:05;40.05;;;28.52;;
48524;SDS011;34316;51.514;-0.178;2022-12-29T08:59:07;41.63;;;27.95;;
48524;SDS011;34316;51.514;-0.178;2022-12-29T09:01:09;44.00;;;28.20;;
48524;SDS011;34316;51.514;-0.178;2022-12-29T09:03:11;41.22;;;25.75;;
48524;SDS011;34316;51.514;-0.178;2022-12-29T09:05:13;42.63;;;26.83;;
48524;SDS011;34316;51.514;-0.178;2022-12-29T09:07:15;38.88;;;28.15;;
48524;SDS011;34316;51.514;-0.178;2022-12-29T09:09:17;40.38;;;26.75;;
48524;SDS011;34316;51.514;-0.178;2022-12-29T09:11:20;40.08;;;26.63;;
48524;SDS011;34316;51.514;-0.178;2022-12-29T09:13:24;38.13;;;27.95;;
48524;SDS011;34316;51.514;-0.178;2022-12-29T09:15:26;39.92;;;27.58;;
48524;SDS011;34316;51.514;-0.178;2022-12-29T09:17:27;41.85;;;28.90;;
48524;SDS011;34316;51.514;-0.178;2022-12-29T09:19:45;38.72;;;27.10;;
48524;SDS011;34316;51.514;-0.178;2022-12-29T09:21:47;49.10;;;30.67;;
48524;SDS011;34316;51.514;-0.178;2022-12-29T09:23:49;37.00;;;24.77;;
48524;SDS011;34316;51.514;-0.178;2022-12-29T09:25:50;37.10;;;26.02;;
48524;SDS011;34316;51.514;-0.178;2022-12-29T09:27:52;38.83;;;26.50;;
48524;SDS011;34316;51.514;-0.178;2022-12-29T09:29:55;38.35;;;25.35;;
48524;SDS011;34316;51.514;-0.178;2022-12-29T09:31:57;37.33;;;24.65;;
48524;SDS011;34316;51.514;-0.178;2022-12-29T09:33:58;38.28;;;25.83;;
48524;SDS011;34316;51.514;-0.178;2022-12-29T09:36:00;39.38;;;25.33;;
48524;SDS011;34316;51.514;-0.178;2022-12-29T09:38:02;34.25;;;25.42;;
48524;SDS011;34316;51.514;-0.178;2022-12-29T09:40:04;40.03;;;26.80;;
48524;SDS011;34316;51.514;-0.178;2022-12-29T09:42:22;56.03;;;33.80;;
48524;SDS011;34316;51.514;-0.178;2022-12-29T09:46:57;41.47;;;25.40;;
48524;SDS011;34316;51.514;-0.178;2022-12-29T09:49:22;36.58;;;22.50;;
48524;SDS011;34316;51.514;-0.178;2022-12-29T09:51:34;30.77;;;21.00;;
48524;SDS011;34316;51.514;-0.178;2022-12-29T09:53:38;33.63;;;22.30;;
48524;SDS011;34316;51.514;-0.178;2022-12-29T09:55:44;34.40;;;23.67;;
48524;SDS011;34316;51.514;-0.178;2022-12-29T09:57:53;32.75;;;22.15;;
48524;SDS011;34316;51.514;-0.178;2022-12-29T09:59:58;34.13;;;22.55;;
48524;SDS011;34316;51.514;-0.178;2022-12-29T10:02:05;44.30;;;27.35;;
48524;SDS011;34316;51.514;-0.178;2022-12-29T10:04:16;37.05;;;24.05;;
48524;SDS011;34316;51.514;-0.178;2022-12-29T10:09:22;35.65;;;23.45;;
48524;SDS011;34316;51.514;-0.178;2022-12-29T10:11:52;33.17;;;22.30;;
48524;SDS011;34316;51.514;-0.178;2022-12-29T10:16:34;34.00;;;23.90;;
48524;SDS011;34316;51.514;-0.178;2022-12-29T10:21:26;38.45;;;24.08;;
48524;SDS011;34316;51.514;-0.178;2022-12-29T10:25:46;36.53;;;22.52;;
48524;SDS011;34316;51.514;-0.178;2022-12-29T10:27:49;41.33;;;25.02;;
48524;SDS011;34316;51.514;-0.178;2022-12-29T10:29:52;36.25;;;22.77;;
48524;SDS011;34316;51.514;-0.178;2022-12-29T10:32:02;39.28;;;23.63;;
48524;SDS011;34316;51.514;-0.178;2022-12-29T10:34:19;122.13;;;61.25;;
48524;SDS011;34316;51.514;-0.178;2022-12-29T10:38:57;34.30;;;22.52;;
48524;SDS011;34316;51.514;-0.178;2022-12-29T10:41:24;35.63;;;22.85;;
48524;SDS011;34316;51.514;-0.178;2022-12-29T10:43:29;37.58;;;23.17;;
48524;SDS011;34316;51.514;-0.178;2022-12-29T10:45:57;34.78;;;23.83;;
48524;SDS011;34316;51.514;-0.178;2022-12-29T10:48:12;36.47;;;24.05;;
48524;SDS011;34316;51.514;-0.178;2022-12-29T10:50:20;34.33;;;22.15;;
48524;SDS011;34316;51.514;-0.178;2022-12-29T10:52:22;37.08;;;23.60;;
48524;SDS011;34316;51.514;-0.178;2022-12-29T10:54:29;39.60;;;24.77;;
48524;SDS011;34316;51.514;-0.178;2022-12-29T10:56:47;36.97;;;24.63;;
48524;SDS011;34316;51.514;-0.178;2022-12-29T10:58:54;35.72;;;23.92;;
48524;SDS011;34316;51.514;-0.178;2022-12-29T11:00:57;37.55;;;23.70;;
48524;SDS011;34316;51.514;-0.178;2022-12-29T11:07:35;34.83;;;23.23;;
48524;SDS011;34316;51.514;-0.178;2022-12-29T11:09:38;34.15;;;23.95;;
48524;SDS011;34316;51.514;-0.178;2022-12-29T11:11:43;41.58;;;24.05;;
48524;SDS011;34316;51.514;-0.178;2022-12-29T11:13:49;34.95;;;24.05;;
48524;SDS011;34316;51.514;-0.178;2022-12-29T11:15:52;34.40;;;23.85;;
48524;SDS011;34316;51.514;-0.178;2022-12-29T11:17:57;33.70;;;22.48;;
48524;SDS011;34316;51.514;-0.178;2022-12-29T11:20:06;32.33;;;21.98;;
48524;SDS011;34316;51.514;-0.178;2022-12-29T11:22:27;36.15;;;22.70;;
48524;SDS011;34316;51.514;-0.178;2022-12-29T11:24:29;35.70;;;21.95;;
48524;SDS011;34316;51.514;-0.178;2022-12-29T11:26:31;36.03;;;23.20;;
48524;SDS011;34316;51.514;-0.178;2022-12-29T11:28:35;34.35;;;22.63;;
48524;SDS011;34316;51.514;-0.178;2022-12-29T11:30:41;31.88;;;21.20;;
48524;SDS011;34316;51.514;-0.178;2022-12-29T11:32:50;34.47;;;22.67;;
48524;SDS011;34316;51.514;-0.178;2022-12-29T11:34:53;31.98;;;21.88;;
48524;SDS011;34316;51.514;-0.178;2022-12-29T11:36:58;33.95;;;20.60;;
48524;SDS011;34316;51.514;-0.178;2022-12-29T11:39:02;33.30;;;21.73;;
48524;SDS011;34316;51.514;-0.178;2022-12-29T11:41:13;31.20;;;20.33;;
48524;SDS011;34316;51.514;-0.178;2022-12-29T11:43:23;34.78;;;20.92;;
48524;SDS011;34316;51.514;-0.178;2022-12-29T11:45:31;28.75;;;19.58;;
48524;SDS011;34316;51.514;-0.178;2022-12-29T11:47:35;30.88;;;19.48;;
48524;SDS011;34316;51.514;-0.178;2022-12-29T11:49:37;33.85;;;20.90;;
48524;SDS011;34316;51.514;-0.178;2022-12-29T11:51:43;33.30;;;20.80;;
48524;SDS011;34316;51.514;-0.178;2022-12-29T11:53:46;37.10;;;21.75;;
48524;SDS011;34316;51.514;-0.178;2022-12-29T11:55:58;31.83;;;20.83;;
48524;SDS011;34316;51.514;-0.178;2022-12-29T11:58:02;32.47;;;21.40;;
48524;SDS011;34316;51.514;-0.178;2022-12-29T12:00:14;34.83;;;22.88;;
48524;SDS011;34316;51.514;-0.178;2022-12-29T12:04:25;34.33;;;22.90;;
48524;SDS011;34316;51.514;-0.178;2022-12-29T12:06:29;37.80;;;24.55;;
48524;SDS011;34316;51.514;-0.178;2022-12-29T12:10:59;33.97;;;22.63;;
48524;SDS011;34316;51.514;-0.178;2022-12-29T12:13:06;35.00;;;23.80;;
48524;SDS011;34316;51.514;-0.178;2022-12-29T12:15:30;36.25;;;23.35;;
48524;SDS011;34316;51.514;-0.178;2022-12-29T12:20:21;35.08;;;21.02;;
48524;SDS011;34316;51.514;-0.178;2022-12-29T12:28:42;29.38;;;20.58;;
48524;SDS011;34316;51.514;-0.178;2022-12-29T12:30:51;28.95;;;20.30;;
48524;SDS011;34316;51.514;-0.178;2022-12-29T12:34:56;30.65;;;20.15;;
48524;SDS011;34316;51.514;-0.178;2022-12-29T12:37:01;30.42;;;19.98;;
48524;SDS011;34316;51.514;-0.178;2022-12-29T12:51:24;30.05;;;18.23;;
48524;SDS011;34316;51.514;-0.178;2022-12-29T13:03:12;30.23;;;19.60;;
48524;SDS011;34316;51.514;-0.178;2022-12-29T13:07:34;29.35;;;18.25;;
48524;SDS011;34316;51.514;-0.178;2022-12-29T13:16:34;31.23;;;19.95;;
48524;SDS011;34316;51.514;-0.178;2022-12-29T13:23:35;32.38;;;19.27;;
48524;SDS011;34316;51.514;-0.178;2022-12-29T13:25:51;35.20;;;18.45;;
48524;SDS011;34316;51.514;-0.178;2022-12-29T13:28:02;31.77;;;17.85;;
48524;SDS011;34316;51.514;-0.178;2022-12-29T13:30:19;31.40;;;17.98;;
48524;SDS011;34316;51.514;-0.178;2022-12-29T13:32:36;34.80;;;17.85;;
48524;SDS011;34316;51.514;-0.178;2022-12-29T13:35:23;33.70;;;18.75;;
48524;SDS011;34316;51.514;-0.178;2022-12-29T13:37:30;27.70;;;19.00;;
48524;SDS011;34316;51.514;-0.178;2022-12-29T13:39:34;33.88;;;20.05;;
48524;SDS011;34316;51.514;-0.178;2022-12-29T13:41:51;29.23;;;18.38;;
48524;SDS011;34316;51.514;-0.178;2022-12-29T13:43:54;29.48;;;17.58;;
48524;SDS011;34316;51.514;-0.178;2022-12-29T13:45:59;29.57;;;19.60;;
48524;SDS011;34316;51.514;-0.178;2022-12-29T13:48:14;32.10;;;18.60;;
48524;SDS011;34316;51.514;-0.178;2022-12-29T13:50:22;31.55;;;19.58;;
48524;SDS011;34316;51.514;-0.178;2022-12-29T13:52:35;29.10;;;18.00;;
48524;SDS011;34316;51.514;-0.178;2022-12-29T13:54:43;32.25;;;19.58;;